ID Time Temp Humidity Light Voltage Firmware Position Fcnt Gateways Distance RSSI LSNR Radiosettings
51 2018-09-21 11:18:36 15.6875°C 84.875% 3.38V v1 52.1992 / 5.41214 12931 tonzttn 0.014km -79 12 867.1Mhz, SF9BW125, 4/5CR
Meetjestad #4 (De Koperhorst) - -119 -7 867.1Mhz, SF9BW125, 4/5CR
51 2018-09-21 11:01:37 16.125°C 76.75% 3.38V v1 52.1992 / 5.41214 12930 tonzttn 0.014km -87 13 868.1Mhz, SF9BW125, 4/5CR
Meetjestad #4 (De Koperhorst) - -118 -4.2 868.1Mhz, SF9BW125, 4/5CR
51 2018-09-21 10:44:37 15.6875°C 81.75% 3.38V v1 52.1992 / 5.41214 12929 tonzttn 0.014km -85 11.25 867.9Mhz, SF9BW125, 4/5CR
Meetjestad #4 (De Koperhorst) - -119 -1 867.9Mhz, SF9BW125, 4/5CR
51 2018-09-21 10:27:38 15.75°C 83.5625% 3.38V v1 52.1992 / 5.41214 12928 tonzttn 0.014km -87 9 868.5Mhz, SF9BW125, 4/5CR
Meetjestad #4 (De Koperhorst) - -108 -9.8 868.5Mhz, SF9BW125, 4/5CR
51 2018-09-21 10:10:39 15.4375°C 84.5% 3.38V v1 52.1992 / 5.41214 12927 tonzttn 0.014km -73 12.25 867.7Mhz, SF9BW125, 4/5CR
Meetjestad #4 (De Koperhorst) - -118 -9.2 867.7Mhz, SF9BW125, 4/5CR
51 2018-09-21 09:53:39 15.6875°C 84.75% 3.38V v1 52.1992 / 5.41214 12926 tonzttn 0.014km -83 12.25 868.3Mhz, SF9BW125, 4/5CR
51 2018-09-21 09:36:39 15.4375°C 96.5625% 3.38V v1 52.1992 / 5.41214 12925 tonzttn 0.014km -73 8.75 867.5Mhz, SF9BW125, 4/5CR
51 2018-09-21 09:19:40 15.5°C 96.6875% 3.38V v1 52.1992 / 5.41214 12924 tonzttn 0.014km -91 11.5 868.1Mhz, SF9BW125, 4/5CR
Meetjestad #4 (De Koperhorst) - -120 -1 868.1Mhz, SF9BW125, 4/5CR
51 2018-09-21 09:02:41 15.75°C 97.125% 3.38V v1 52.1992 / 5.41214 12923 tonzttn 0.014km -78 12.5 867.3Mhz, SF9BW125, 4/5CR
Meetjestad #4 (De Koperhorst) - -120 -4.5 867.3Mhz, SF9BW125, 4/5CR
51 2018-09-21 08:45:41 16.75°C 99.1875% 3.38V v1 52.1992 / 5.41214 12922 tonzttn 0.014km -75 9 868.5Mhz, SF9BW125, 4/5CR
51 2018-09-21 08:28:41 16.75°C 98.3125% 3.38V v1 52.1992 / 5.41214 12921 tonzttn 0.014km -78 11.5 867.1Mhz, SF9BW125, 4/5CR
Meetjestad #3 (Berghotel) 6.983km -115 -13.75 867.1Mhz, SF9BW125, 4/5CR
51 2018-09-21 08:11:41 17.125°C 94.625% 3.38V v1 52.1992 / 5.41214 12920 tonzttn 0.014km -70 12.5 868.3Mhz, SF9BW125, 4/5CR
51 2018-09-21 07:54:41 18°C 89.5625% 3.38V v1 52.1992 / 5.41214 12919 tonzttn 0.014km -79 12 867.9Mhz, SF9BW125, 4/5CR
Meetjestad #4 (De Koperhorst) - -121 -3.5 867.9Mhz, SF9BW125, 4/5CR
51 2018-09-21 07:37:40 19°C 80.375% 3.38V v1 52.1992 / 5.41214 12918 tonzttn 0.014km -73 12.5 868.1Mhz, SF9BW125, 4/5CR
Meetjestad #4 (De Koperhorst) - -121 -9.5 868.1Mhz, SF9BW125, 4/5CR
51 2018-09-21 07:20:40 18.9375°C 81.6875% 3.38V v1 52.1992 / 5.41214 12917 tonzttn 0.014km -71 12.25 867.7Mhz, SF9BW125, 4/5CR
Meetjestad #4 (De Koperhorst) - -120 -1.2 867.7Mhz, SF9BW125, 4/5CR
51 2018-09-21 07:03:39 19°C 80.0625% 3.38V v1 52.1992 / 5.41214 12916 tonzttn 0.014km -65 8.5 868.5Mhz, SF9BW125, 4/5CR
51 2018-09-21 06:46:39 19°C 80.4375% 3.38V v1 52.1992 / 5.41214 12915 tonzttn 0.014km -71 9 867.5Mhz, SF9BW125, 4/5CR
Meetjestad #4 (De Koperhorst) - -109 -14 867.5Mhz, SF9BW125, 4/5CR
51 2018-09-21 06:29:38 18.875°C 80.9375% 3.38V v1 52.1992 / 5.41214 12914 tonzttn 0.014km -75 12 868.3Mhz, SF9BW125, 4/5CR
51 2018-09-21 06:12:38 18.875°C 81.1875% 3.38V v1 52.1992 / 5.41214 12913 tonzttn 0.014km -69 12.75 867.3Mhz, SF9BW125, 4/5CR
Meetjestad #4 (De Koperhorst) - -118 -1.5 867.3Mhz, SF9BW125, 4/5CR
51 2018-09-21 05:55:37 18.9375°C 80.875% 3.38V v1 52.1992 / 5.41214 12912 tonzttn 0.014km -72 11.75 868.1Mhz, SF9BW125, 4/5CR
Meetjestad #4 (De Koperhorst) - -121 -4 868.1Mhz, SF9BW125, 4/5CR
51 2018-09-21 05:38:37 19.0625°C 80.625% 3.38V v1 52.1992 / 5.41214 12911 tonzttn 0.014km -71 11 867.1Mhz, SF9BW125, 4/5CR
51 2018-09-21 05:21:36 19.125°C 80.375% 3.38V v1 52.1992 / 5.41214 12910 tonzttn 0.014km -71 8.5 868.5Mhz, SF9BW125, 4/5CR
Meetjestad #4 (De Koperhorst) - -110 -8.2 868.5Mhz, SF9BW125, 4/5CR
51 2018-09-21 05:04:35 19.125°C 80.1875% 3.38V v1 52.1992 / 5.41214 12909 tonzttn 0.014km -71 12.25 867.9Mhz, SF9BW125, 4/5CR
Meetjestad #4 (De Koperhorst) - -117 -0.8 867.9Mhz, SF9BW125, 4/5CR
51 2018-09-21 04:47:35 19.125°C 80.25% 3.38V v1 52.1992 / 5.41214 12908 tonzttn 0.014km -69 11.75 868.3Mhz, SF9BW125, 4/5CR
51 2018-09-21 04:30:34 19.25°C 79.5% 3.38V v1 52.1992 / 5.41214 12907 tonzttn 0.014km -69 12.75 867.7Mhz, SF9BW125, 4/5CR
Meetjestad #4 (De Koperhorst) - -120 -10.2 867.7Mhz, SF9BW125, 4/5CR
51 2018-09-21 04:13:33 19.375°C 79.125% 3.38V v1 52.1992 / 5.41214 12906 tonzttn 0.014km -77 12.75 868.1Mhz, SF9BW125, 4/5CR
Meetjestad #4 (De Koperhorst) - -119 -11.2 868.1Mhz, SF9BW125, 4/5CR
51 2018-09-21 03:56:33 19.375°C 78.75% 3.38V v1 52.1992 / 5.41214 12905 tonzttn 0.014km -66 8 867.5Mhz, SF9BW125, 4/5CR
Meetjestad #4 (De Koperhorst) - -110 -10.8 867.5Mhz, SF9BW125, 4/5CR
mjs-gateway-6 - -120 -11.75 867.5Mhz, SF9BW125, 4/5CR
51 2018-09-21 03:39:32 19.4375°C 78.375% 3.38V v1 52.1992 / 5.41214 12904 tonzttn 0.014km -67 8.75 868.5Mhz, SF9BW125, 4/5CR
Meetjestad #4 (De Koperhorst) - -114 -11.5 868.5Mhz, SF9BW125, 4/5CR
51 2018-09-21 03:22:32 19.375°C 78.375% 3.38V v1 52.1992 / 5.41214 12903 tonzttn 0.014km -71 12.75 867.3Mhz, SF9BW125, 4/5CR
51 2018-09-21 03:05:31 19.5625°C 77.625% 3.38V v1 52.1992 / 5.41214 12902 tonzttn 0.014km -67 11.5 868.3Mhz, SF9BW125, 4/5CR
51 2018-09-21 02:48:30 19.6875°C 77.75% 3.38V v1 52.1992 / 5.41214 12901 tonzttn 0.014km -71 12.5 867.1Mhz, SF9BW125, 4/5CR
Meetjestad #4 (De Koperhorst) - -120 -5 867.1Mhz, SF9BW125, 4/5CR
51 2018-09-21 02:31:38 19.75°C 77.5625% 3.38V v1 52.1992 / 5.41214 12900 tonzttn 0.014km -69 12.25 868.1Mhz, SF9BW125, 4/5CR
Meetjestad #4 (De Koperhorst) - -120 -1.8 868.1Mhz, SF9BW125, 4/5CR
eui-1dee1538af05a5a8 - -121 -11 868.1Mhz, SF9BW125, 4/5CR
51 2018-09-21 02:14:37 19.8125°C 77.375% 3.38V v1 52.1992 / 5.41214 12899 tonzttn 0.014km -73 12 867.9Mhz, SF9BW125, 4/5CR
Meetjestad #4 (De Koperhorst) - -118 0 867.9Mhz, SF9BW125, 4/5CR
51 2018-09-21 01:57:37 19.6875°C 78.1875% 3.38V v1 52.1992 / 5.41214 12898 tonzttn 0.014km -69 7.75 868.5Mhz, SF9BW125, 4/5CR
Meetjestad #4 (De Koperhorst) - -113 -5.5 868.5Mhz, SF9BW125, 4/5CR
51 2018-09-21 01:40:36 19.6875°C 78.125% 3.38V v1 52.1992 / 5.41214 12897 tonzttn 0.014km -67 12.25 867.7Mhz, SF9BW125, 4/5CR
Meetjestad #4 (De Koperhorst) - -118 1 867.7Mhz, SF9BW125, 4/5CR
51 2018-09-21 01:23:35 19.8125°C 77.4375% 3.38V v1 52.1992 / 5.41214 12896 tonzttn 0.014km -66 11 868.3Mhz, SF9BW125, 4/5CR
Meetjestad #4 (De Koperhorst) - -111 -5.2 868.3Mhz, SF9BW125, 4/5CR
51 2018-09-21 01:06:34 19.75°C 78.125% 3.38V v1 52.1992 / 5.41214 12895 tonzttn 0.014km -67 8.25 867.5Mhz, SF9BW125, 4/5CR
51 2018-09-21 00:49:33 19.5625°C 79.1875% 3.38V v1 52.1992 / 5.41214 12894 tonzttn 0.014km -71 11 868.1Mhz, SF9BW125, 4/5CR
Meetjestad #4 (De Koperhorst) - -120 -9 868.1Mhz, SF9BW125, 4/5CR
51 2018-09-21 00:32:33 19.5625°C 79.1875% 3.38V v1 52.1992 / 5.41214 12893 tonzttn 0.014km -71 12 867.3Mhz, SF9BW125, 4/5CR
51 2018-09-21 00:15:32 19.5625°C 79.6875% 3.38V v1 52.1992 / 5.41214 12892 tonzttn 0.014km -67 9.25 868.5Mhz, SF9BW125, 4/5CR
51 2018-09-20 23:58:31 19.375°C 80.875% 3.38V v1 52.1992 / 5.41214 12891 tonzttn 0.014km -70 11.5 867.1Mhz, SF9BW125, 4/5CR
Meetjestad #4 (De Koperhorst) - -120 -8.5 867.1Mhz, SF9BW125, 4/5CR
51 2018-09-20 23:41:30 19.375°C 80.5% 3.38V v1 52.1992 / 5.41214 12890 tonzttn 0.014km -71 13.25 868.3Mhz, SF9BW125, 4/5CR
eui-1dee1538af05a5a8 - -121 -13.8 868.3Mhz, SF9BW125, 4/5CR
51 2018-09-20 23:24:30 19.3125°C 81.75% 3.38V v1 52.1992 / 5.41214 12889 tonzttn 0.014km -69 11.75 867.9Mhz, SF9BW125, 4/5CR
eui-1dee1538af05a5a8 - -120 -11.5 867.9Mhz, SF9BW125, 4/5CR
51 2018-09-20 23:07:29 19.125°C 82.1875% 3.38V v1 52.1992 / 5.41214 12888 tonzttn 0.014km -70 12.25 868.1Mhz, SF9BW125, 4/5CR
Meetjestad #4 (De Koperhorst) - -116 1 868.1Mhz, SF9BW125, 4/5CR
51 2018-09-20 22:50:28 18.875°C 83.75% 3.38V v1 52.1992 / 5.41214 12887 tonzttn 0.014km -75 11.75 867.7Mhz, SF9BW125, 4/5CR
Meetjestad #4 (De Koperhorst) - -119 -1.5 867.7Mhz, SF9BW125, 4/5CR
51 2018-09-20 22:33:28 18.8125°C 83.1875% 3.38V v1 52.1992 / 5.41214 12886 tonzttn 0.014km -71 8 868.5Mhz, SF9BW125, 4/5CR
51 2018-09-20 22:16:27 18.875°C 83.3125% 3.38V v1 52.1992 / 5.41214 12885 tonzttn 0.014km -69 9.5 867.5Mhz, SF9BW125, 4/5CR
Meetjestad #4 (De Koperhorst) - -114 -3.2 867.5Mhz, SF9BW125, 4/5CR
51 2018-09-20 21:59:27 18.9375°C 83% 3.38V v1 52.1992 / 5.41214 12884 tonzttn 0.014km -67 12.75 868.3Mhz, SF9BW125, 4/5CR
Meetjestad #4 (De Koperhorst) - -113 -9.5 868.3Mhz, SF9BW125, 4/5CR
51 2018-09-20 21:42:26 18.875°C 83.5% 3.38V v1 52.1992 / 5.41214 12883 tonzttn 0.014km -69 11.75 867.3Mhz, SF9BW125, 4/5CR
Meetjestad #4 (De Koperhorst) - -119 1.8 867.3Mhz, SF9BW125, 4/5CR
eui-1dee1538af05a5a8 - -117 -13.5 867.3Mhz, SF9BW125, 4/5CR
51 2018-09-20 21:25:26 19°C 83.3125% 3.38V v1 52.1992 / 5.41214 12882 tonzttn 0.014km -72 12.5 868.1Mhz, SF9BW125, 4/5CR
Meetjestad #4 (De Koperhorst) - -121 -6.5 868.1Mhz, SF9BW125, 4/5CR
eui-1dee1538af05a5a8 - -120 -14.2 868.1Mhz, SF9BW125, 4/5CR
51 2018-09-20 21:08:25 19.1875°C 82.25% 3.38V v1 52.1992 / 5.41214 12881 tonzttn 0.014km -72 10 867.1Mhz, SF9BW125, 4/5CR
Meetjestad #4 (De Koperhorst) - -119 -1 867.1Mhz, SF9BW125, 4/5CR
51 2018-09-20 20:51:24 19.1875°C 82.625% 3.38V v1 52.1992 / 5.41214 12880 tonzttn 0.014km -69 9 868.5Mhz, SF9BW125, 4/5CR
51 2018-09-20 20:34:24 19.5625°C 80.6875% 3.38V v1 52.1992 / 5.41214 12879 tonzttn 0.014km -71 13.5 867.9Mhz, SF9BW125, 4/5CR
Meetjestad #4 (De Koperhorst) - -119 -5.5 867.9Mhz, SF9BW125, 4/5CR
51 2018-09-20 20:17:23 19.9375°C 79.375% 3.38V v1 52.1992 / 5.41214 12878 tonzttn 0.014km -71 12.5 868.3Mhz, SF9BW125, 4/5CR
Meetjestad #4 (De Koperhorst) - -115 -11.2 868.3Mhz, SF9BW125, 4/5CR
51 2018-09-20 20:00:22 20.3125°C 77.6875% 3.38V v1 52.1992 / 5.41214 12877 tonzttn 0.014km -73 12.75 867.7Mhz, SF9BW125, 4/5CR
Meetjestad #4 (De Koperhorst) - -121 -8.8 867.7Mhz, SF9BW125, 4/5CR
eui-1dee1538af05a5a8 - -119 -13.8 867.7Mhz, SF9BW125, 4/5CR
51 2018-09-20 19:43:21 20.9375°C 75.75% 3.38V v1 52.1992 / 5.41214 12876 tonzttn 0.014km -73 11 868.1Mhz, SF9BW125, 4/5CR
Meetjestad #4 (De Koperhorst) - -121 -5 868.1Mhz, SF9BW125, 4/5CR
51 2018-09-20 19:26:19 21.375°C 73.625% 3.38V v1 52.1992 / 5.41214 12875 tonzttn 0.014km -75 9 867.5Mhz, SF9BW125, 4/5CR
51 2018-09-20 19:09:18 21.6875°C 71.9375% 3.38V v1 52.1992 / 5.41214 12874 tonzttn 0.014km -71 8.75 868.5Mhz, SF9BW125, 4/5CR
Meetjestad #4 (De Koperhorst) - -117 -8.5 868.5Mhz, SF9BW125, 4/5CR
51 2018-09-20 18:52:16 22°C 71.5% 3.38V v1 52.1992 / 5.41214 12873 tonzttn 0.014km -70 11.75 867.3Mhz, SF9BW125, 4/5CR
Meetjestad #4 (De Koperhorst) - -119 -3.8 867.3Mhz, SF9BW125, 4/5CR
51 2018-09-20 18:35:14 22.1875°C 70.875% 3.38V v1 52.1992 / 5.41214 12872 tonzttn 0.014km -69 12.25 868.3Mhz, SF9BW125, 4/5CR
51 2018-09-20 18:18:12 22.5°C 69.125% 3.38V v1 52.1992 / 5.41214 12871 tonzttn 0.014km -75 12.25 867.1Mhz, SF9BW125, 4/5CR
Meetjestad #4 (De Koperhorst) - -121 -6 867.1Mhz, SF9BW125, 4/5CR
51 2018-09-20 18:01:11 22.625°C 68.3125% 3.38V v1 52.1992 / 5.41214 12870 tonzttn 0.014km -77 13 868.1Mhz, SF9BW125, 4/5CR
Meetjestad #4 (De Koperhorst) - -121 -4.5 868.1Mhz, SF9BW125, 4/5CR
51 2018-09-20 17:44:09 22.6875°C 68.75% 3.38V v1 52.1992 / 5.41214 12869 tonzttn 0.014km -77 13.5 867.9Mhz, SF9BW125, 4/5CR
Meetjestad #4 (De Koperhorst) - -120 -3.8 867.9Mhz, SF9BW125, 4/5CR
51 2018-09-20 17:27:07 22.75°C 68.8125% 3.38V v1 52.1992 / 5.41214 12868 tonzttn 0.014km -73 9 868.5Mhz, SF9BW125, 4/5CR
Meetjestad #4 (De Koperhorst) - -112 -8 868.5Mhz, SF9BW125, 4/5CR
51 2018-09-20 17:10:05 22.9375°C 68.0625% 3.38V v1 52.1992 / 5.41214 12867 tonzttn 0.014km -71 11.5 867.7Mhz, SF9BW125, 4/5CR
Meetjestad #4 (De Koperhorst) - -120 -10 867.7Mhz, SF9BW125, 4/5CR
51 2018-09-20 16:53:03 23°C 69.375% 3.38V v1 52.1992 / 5.41214 12866 tonzttn 0.014km -71 13.5 868.3Mhz, SF9BW125, 4/5CR
51 2018-09-20 16:36:01 22.875°C 69.375% 3.38V v1 52.1992 / 5.41214 12865 tonzttn 0.014km -73 8.5 867.5Mhz, SF9BW125, 4/5CR
Meetjestad #4 (De Koperhorst) - -114 -7.2 867.5Mhz, SF9BW125, 4/5CR
mjs-gateway-6 - -119 -13 867.5Mhz, SF9BW125, 4/5CR
51 2018-09-20 16:19:41 22.9375°C 69.1875% 3.38V v1 52.1992 / 5.41214 12864 tonzttn 0.014km -71 9.5 868.1Mhz, SF12BW125, 4/5CR
Meetjestad #4 (De Koperhorst) - -121 -7 868.1Mhz, SF12BW125, 4/5CR
mjs-gateway-6 - -121 -13 868.1Mhz, SF12BW125, 4/5CR
eui-1dee1538af05a5a8 - -121 -14 868.1Mhz, SF12BW125, 4/5CR
Meetjestad #3 (Berghotel) 6.983km -119 -16 868.1Mhz, SF12BW125, 4/5CR
51 2018-09-20 16:02:03 22.5625°C 70.1875% 3.38V v1 52.1992 / 5.41217 12863 tonzttn 0.015km -79 12.75 867.3Mhz, SF9BW125, 4/5CR
Meetjestad #4 (De Koperhorst) - -117 -4.8 867.3Mhz, SF9BW125, 4/5CR
51 2018-09-20 15:45:01 22.625°C 70.1875% 3.38V v1 52.1992 / 5.41217 12862 tonzttn 0.015km -71 9.75 868.5Mhz, SF9BW125, 4/5CR
Meetjestad #4 (De Koperhorst) - -112 -10 868.5Mhz, SF9BW125, 4/5CR
51 2018-09-20 15:27:59 22.6875°C 69.75% 3.38V v1 52.1992 / 5.41217 12861 tonzttn 0.015km -83 13.5 867.1Mhz, SF9BW125, 4/5CR
mjs-gateway-6 - -120 -13.5 867.1Mhz, SF9BW125, 4/5CR
51 2018-09-20 15:10:57 22.5°C 70.625% 3.38V v1 52.1992 / 5.41217 12860 tonzttn 0.015km -77 12 868.3Mhz, SF9BW125, 4/5CR
51 2018-09-20 14:53:55 22.5°C 70.125% 3.38V v1 52.1992 / 5.41217 12859 tonzttn 0.015km -77 12.5 867.9Mhz, SF9BW125, 4/5CR
Meetjestad #4 (De Koperhorst) - -112 -2.2 867.9Mhz, SF9BW125, 4/5CR
51 2018-09-20 14:36:54 22.1875°C 71.25% 3.38V v1 52.1992 / 5.41217 12858 tonzttn 0.015km -77 10.75 868.1Mhz, SF9BW125, 4/5CR
Meetjestad #4 (De Koperhorst) - -120 -2.2 868.1Mhz, SF9BW125, 4/5CR
mjs-gateway-6 - -120 -14 868.1Mhz, SF9BW125, 4/5CR
51 2018-09-20 14:19:52 22.375°C 70.5% 3.38V v1 52.1992 / 5.41217 12857 tonzttn 0.015km -77 13.75 867.7Mhz, SF9BW125, 4/5CR
51 2018-09-20 14:02:51 22°C 71.6875% 3.38V v1 52.1992 / 5.41217 12856 tonzttn 0.015km -67 8.75 868.5Mhz, SF9BW125, 4/5CR
51 2018-09-20 13:45:49 21.8125°C 73.3125% 3.38V v1 52.1992 / 5.41217 12855 tonzttn 0.015km -79 9.25 867.5Mhz, SF9BW125, 4/5CR
51 2018-09-20 13:28:48 21.4375°C 75.375% 3.38V v1 52.1992 / 5.41217 12854 tonzttn 0.015km -72 10.75 868.3Mhz, SF9BW125, 4/5CR
51 2018-09-20 13:11:46 20.875°C 77.625% 3.38V v1 52.1992 / 5.41217 12853 tonzttn 0.015km -77 14 867.3Mhz, SF9BW125, 4/5CR
Meetjestad #4 (De Koperhorst) - -119 -7.2 867.3Mhz, SF9BW125, 4/5CR
51 2018-09-20 12:54:45 20.9375°C 78.5625% 3.38V v1 52.1992 / 5.41217 12852 tonzttn 0.015km -77 12.5 868.1Mhz, SF9BW125, 4/5CR
Meetjestad #4 (De Koperhorst) - -121 -2.5 868.1Mhz, SF9BW125, 4/5CR
51 2018-09-20 12:37:44 20.625°C 81.1875% 3.38V v1 52.1992 / 5.41217 12851 tonzttn 0.015km -75 12.25 867.1Mhz, SF9BW125, 4/5CR
Meetjestad #4 (De Koperhorst) - -119 -6.5 867.1Mhz, SF9BW125, 4/5CR
51 2018-09-20 12:20:43 20.3125°C 81.1875% 3.38V v1 52.1992 / 5.41217 12850 tonzttn 0.015km -71 8.5 868.5Mhz, SF9BW125, 4/5CR
51 2018-09-20 12:03:42 20.375°C 79.375% 3.38V v1 52.1992 / 5.41217 12849 tonzttn 0.015km -77 13 867.9Mhz, SF9BW125, 4/5CR
51 2018-09-20 11:46:41 20.125°C 81% 3.38V v1 52.1992 / 5.41217 12848 tonzttn 0.015km -71 13.5 868.3Mhz, SF9BW125, 4/5CR
51 2018-09-20 11:29:41 20.1875°C 83.1875% 3.38V v1 52.1992 / 5.41217 12847 tonzttn 0.015km -75 12.5 867.7Mhz, SF9BW125, 4/5CR
51 2018-09-20 11:12:39 19.8125°C 85.0625% 3.38V v1 52.1992 / 5.41217 12846 tonzttn 0.015km -75 12 868.1Mhz, SF9BW125, 4/5CR
Meetjestad #4 (De Koperhorst) - -120 -11 868.1Mhz, SF9BW125, 4/5CR
51 2018-09-20 10:55:39 19.3125°C 86.3125% 3.38V v1 52.1992 / 5.41217 12845 tonzttn 0.015km -71 9.75 867.5Mhz, SF9BW125, 4/5CR
51 2018-09-20 10:38:38 18.875°C 87.5% 3.38V v1 52.1992 / 5.41217 12844 tonzttn 0.015km -73 8.75 868.5Mhz, SF9BW125, 4/5CR
51 2018-09-20 10:21:38 18.625°C 88.875% 3.38V v1 52.1992 / 5.41217 12843 tonzttn 0.015km -73 11.75 867.3Mhz, SF9BW125, 4/5CR
Meetjestad #4 (De Koperhorst) - -120 -4.2 867.3Mhz, SF9BW125, 4/5CR
51 2018-09-20 10:04:37 18.625°C 88.0625% 3.38V v1 52.1992 / 5.41217 12842 tonzttn 0.015km -75 11.5 868.3Mhz, SF9BW125, 4/5CR
51 2018-09-20 09:47:37 18.8125°C 89.25% 3.38V v1 52.1992 / 5.41217 12841 tonzttn 0.015km -73 12.75 867.1Mhz, SF9BW125, 4/5CR
Meetjestad #4 (De Koperhorst) - -121 -4.8 867.1Mhz, SF9BW125, 4/5CR
51 2018-09-20 09:30:36 19°C 88.4375% 3.38V v1 52.1992 / 5.41217 12840 tonzttn 0.015km -77 13.25 868.1Mhz, SF9BW125, 4/5CR
Meetjestad #4 (De Koperhorst) - -120 -5.5 868.1Mhz, SF9BW125, 4/5CR
51 2018-09-20 09:13:36 18.3125°C 89.8125% 3.38V v1 52.1992 / 5.41217 12839 tonzttn 0.015km -75 12.25 867.9Mhz, SF9BW125, 4/5CR
51 2018-09-20 08:56:36 17.5625°C 91.4375% 3.38V v1 52.1992 / 5.41217 12838 tonzttn 0.015km -71 8.75 868.5Mhz, SF9BW125, 4/5CR
Meetjestad #4 (De Koperhorst) - -115 -5.5 868.5Mhz, SF9BW125, 4/5CR
51 2018-09-20 08:39:36 17.125°C 92.875% 3.38V v1 52.1992 / 5.41217 12837 tonzttn 0.015km -79 14 867.7Mhz, SF9BW125, 4/5CR
Meetjestad #4 (De Koperhorst) - -120 -5.2 867.7Mhz, SF9BW125, 4/5CR
mjs-gateway-6 - -119 -12.25 867.7Mhz, SF9BW125, 4/5CR
51 2018-09-20 08:22:36 16.9375°C 93.3125% 3.38V v1 52.1992 / 5.41217 12836 tonzttn 0.015km -72 12.75 868.3Mhz, SF9BW125, 4/5CR
Meetjestad #4 (De Koperhorst) - -109 -10.8 868.3Mhz, SF9BW125, 4/5CR
51 2018-09-20 08:05:36 16.8125°C 93.25% 3.38V v1 52.1992 / 5.41217 12835 tonzttn 0.015km -79 9 867.5Mhz, SF9BW125, 4/5CR
51 2018-09-20 07:48:36 16.8125°C 92.9375% 3.38V v1 52.1992 / 5.41217 12834 tonzttn 0.015km -79 11.25 868.1Mhz, SF9BW125, 4/5CR
Meetjestad #4 (De Koperhorst) - -118 -0.2 868.1Mhz, SF9BW125, 4/5CR
51 2018-09-20 07:31:37 16.75°C 93.25% 3.38V v1 52.1992 / 5.41217 12833 tonzttn 0.015km -75 12 867.3Mhz, SF9BW125, 4/5CR
Meetjestad #4 (De Koperhorst) - -120 -2.2 867.3Mhz, SF9BW125, 4/5CR
eui-b827ebfffe710b30 - -108 -13.2 867.3Mhz, SF9BW125, 4/5CR
51 2018-09-20 07:14:37 16.5625°C 93.6875% 3.38V v1 52.1992 / 5.41217 12832 tonzttn 0.015km -75 9.75 868.5Mhz, SF9BW125, 4/5CR
51 2018-09-20 06:57:37 16.625°C 93.25% 3.38V v1 52.1992 / 5.41217 12831 tonzttn 0.015km -75 12.25 867.1Mhz, SF9BW125, 4/5CR
Meetjestad #4 (De Koperhorst) - -116 -2.8 867.1Mhz, SF9BW125, 4/5CR
51 2018-09-20 06:40:37 16.5625°C 93.5% 3.38V v1 52.1992 / 5.41217 12830 tonzttn 0.015km -77 12.25 868.3Mhz, SF9BW125, 4/5CR
51 2018-09-20 06:23:38 16.375°C 94.375% 3.38V v1 52.1992 / 5.41217 12829 tonzttn 0.015km -81 11.75 867.9Mhz, SF9BW125, 4/5CR
51 2018-09-20 06:06:38 16.375°C 94.0625% 3.38V v1 52.1992 / 5.41217 12828 tonzttn 0.015km -81 11.25 868.1Mhz, SF9BW125, 4/5CR
Meetjestad #4 (De Koperhorst) - -120 -7.2 868.1Mhz, SF9BW125, 4/5CR
mjs-gateway-6 - -121 -13 868.1Mhz, SF9BW125, 4/5CR
51 2018-09-20 05:49:38 16.5°C 93.5% 3.38V v1 52.1992 / 5.41217 12827 tonzttn 0.015km -79 12.25 867.7Mhz, SF9BW125, 4/5CR
Meetjestad #4 (De Koperhorst) - -120 -1.5 867.7Mhz, SF9BW125, 4/5CR
51 2018-09-20 05:32:38 16.6875°C 92.6875% 3.38V v1 52.1992 / 5.41217 12826 tonzttn 0.015km -77 9.25 868.5Mhz, SF9BW125, 4/5CR
Meetjestad #4 (De Koperhorst) - -108 -11.5 868.5Mhz, SF9BW125, 4/5CR
51 2018-09-20 05:15:38 16.875°C 92.1875% 3.38V v1 52.1992 / 5.41217 12825 tonzttn 0.015km -75 9.5 867.5Mhz, SF9BW125, 4/5CR
Meetjestad #4 (De Koperhorst) - -119 -9 867.5Mhz, SF9BW125, 4/5CR
51 2018-09-20 04:58:39 16.8125°C 92.125% 3.38V v1 52.1992 / 5.41217 12824 tonzttn 0.015km -83 11.75 868.3Mhz, SF9BW125, 4/5CR
51 2018-09-20 04:41:39 16.9375°C 91.6875% 3.38V v1 52.1992 / 5.41217 12823 tonzttn 0.015km -75 12.75 867.3Mhz, SF9BW125, 4/5CR
Meetjestad #4 (De Koperhorst) - -115 -7.8 867.3Mhz, SF9BW125, 4/5CR
51 2018-09-20 04:24:39 16.9375°C 91.625% 3.38V v1 52.1992 / 5.41217 12822 tonzttn 0.015km -83 13 868.1Mhz, SF9BW125, 4/5CR
Meetjestad #4 (De Koperhorst) - -118 -4.5 868.1Mhz, SF9BW125, 4/5CR
eui-1dee1538af05a5a8 - -121 -13.2 868.1Mhz, SF9BW125, 4/5CR
51 2018-09-20 04:07:39 17°C 91.25% 3.38V v1 52.1992 / 5.41217 12821 tonzttn 0.015km -79 13 867.1Mhz, SF9BW125, 4/5CR
Meetjestad #4 (De Koperhorst) - -119 -10 867.1Mhz, SF9BW125, 4/5CR
51 2018-09-20 03:50:39 17°C 91.4375% 3.38V v1 52.1992 / 5.41217 12820 tonzttn 0.015km -75 8.75 868.5Mhz, SF9BW125, 4/5CR
51 2018-09-20 03:33:39 17°C 91.4375% 3.38V v1 52.1992 / 5.41217 12819 tonzttn 0.015km -83 13.25 867.9Mhz, SF9BW125, 4/5CR
Meetjestad #4 (De Koperhorst) - -120 -8 867.9Mhz, SF9BW125, 4/5CR
51 2018-09-20 03:16:39 17.125°C 90.75% 3.38V v1 52.1992 / 5.41217 12818 tonzttn 0.015km -77 12.5 868.3Mhz, SF9BW125, 4/5CR
51 2018-09-20 02:59:39 17.1875°C 90.375% 3.38V v1 52.1992 / 5.41217 12817 tonzttn 0.015km -77 12.25 867.7Mhz, SF9BW125, 4/5CR
Meetjestad #4 (De Koperhorst) - -119 -1.2 867.7Mhz, SF9BW125, 4/5CR
mjs-gateway-6 - -120 -11.75 867.7Mhz, SF9BW125, 4/5CR
51 2018-09-20 02:42:39 17.25°C 89.875% 3.38V v1 52.1992 / 5.41217 12816 tonzttn 0.015km -78 12.25 868.1Mhz, SF9BW125, 4/5CR
Meetjestad #4 (De Koperhorst) - -118 -9.5 868.1Mhz, SF9BW125, 4/5CR
51 2018-09-20 02:25:39 17.5625°C 89.0625% 3.38V v1 52.1992 / 5.41217 12815 tonzttn 0.015km -76 9.75 867.5Mhz, SF9BW125, 4/5CR
Meetjestad #4 (De Koperhorst) - -111 -7.5 867.5Mhz, SF9BW125, 4/5CR
51 2018-09-20 02:08:39 17.625°C 89.125% 3.38V v1 52.1992 / 5.41217 12814 tonzttn 0.015km -73 9 868.5Mhz, SF9BW125, 4/5CR
51 2018-09-20 01:51:39 17.875°C 87.625% 3.38V v1 52.1992 / 5.41217 12813 tonzttn 0.015km -79 11.75 867.3Mhz, SF9BW125, 4/5CR
Meetjestad #4 (De Koperhorst) - -118 -6.5 867.3Mhz, SF9BW125, 4/5CR
51 2018-09-20 01:34:39 17.9375°C 87.3125% 3.38V v1 52.1992 / 5.41217 12812 tonzttn 0.015km -77 13 868.3Mhz, SF9BW125, 4/5CR
51 2018-09-20 01:17:38 18.125°C 86.75% 3.38V v1 52.1992 / 5.41217 12811 tonzttn 0.015km -76 12 867.1Mhz, SF9BW125, 4/5CR
Meetjestad #4 (De Koperhorst) - -119 -2 867.1Mhz, SF9BW125, 4/5CR
eui-1dee1538af05a5a8 - -120 -13 867.1Mhz, SF9BW125, 4/5CR
51 2018-09-20 01:00:38 18.375°C 86% 3.38V v1 52.1992 / 5.41217 12810 tonzttn 0.015km -79 11.75 868.1Mhz, SF9BW125, 4/5CR
Meetjestad #4 (De Koperhorst) - -119 -7.2 868.1Mhz, SF9BW125, 4/5CR
51 2018-09-20 00:43:38 18.5625°C 84.9375% 3.38V v1 52.1992 / 5.41217 12809 tonzttn 0.015km -78 12 867.9Mhz, SF9BW125, 4/5CR
Meetjestad #4 (De Koperhorst) - -120 -4.5 867.9Mhz, SF9BW125, 4/5CR
51 2018-09-20 00:26:37 18.8125°C 84.375% 3.38V v1 52.1992 / 5.41217 12808 tonzttn 0.015km -70 9 868.5Mhz, SF9BW125, 4/5CR
51 2018-09-20 00:09:36 19°C 83.625% 3.38V v1 52.1992 / 5.41217 12807 tonzttn 0.015km -77 14 867.7Mhz, SF9BW125, 4/5CR
Meetjestad #4 (De Koperhorst) - -119 -3.5 867.7Mhz, SF9BW125, 4/5CR
eui-b827ebfffe710b30 - -109 -14 867.7Mhz, SF9BW125, 4/5CR
51 2018-09-19 23:52:36 19.125°C 83.1875% 3.38V v1 52.1992 / 5.41217 12806 tonzttn 0.015km -75 11.75 868.3Mhz, SF9BW125, 4/5CR
Meetjestad #4 (De Koperhorst) - -113 -10 868.3Mhz, SF9BW125, 4/5CR
51 2018-09-19 23:35:35 19.4375°C 81.75% 3.38V v1 52.1992 / 5.41217 12805 tonzttn 0.015km -75 9.75 867.5Mhz, SF9BW125, 4/5CR
Meetjestad #4 (De Koperhorst) - -118 -6.8 867.5Mhz, SF9BW125, 4/5CR
51 2018-09-19 23:18:34 19.5625°C 80.75% 3.38V v1 52.1992 / 5.41217 12804 tonzttn 0.015km -78 11.25 868.1Mhz, SF9BW125, 4/5CR
Meetjestad #4 (De Koperhorst) - -120 -6.2 868.1Mhz, SF9BW125, 4/5CR
mjs-gateway-6 - -121 -12 868.1Mhz, SF9BW125, 4/5CR
51 2018-09-19 23:01:34 19.625°C 81% 3.38V v1 52.1992 / 5.41217 12803 tonzttn 0.015km -78 11.75 867.3Mhz, SF9BW125, 4/5CR
Meetjestad #4 (De Koperhorst) - -120 -3.5 867.3Mhz, SF9BW125, 4/5CR
51 2018-09-19 22:44:33 19.8125°C 80.1875% 3.38V v1 52.1992 / 5.41217 12802 tonzttn 0.015km -68 9.75 868.5Mhz, SF9BW125, 4/5CR
Meetjestad #4 (De Koperhorst) - -112 -6.8 868.5Mhz, SF9BW125, 4/5CR
51 2018-09-19 22:27:32 19.8125°C 80.5625% 3.38V v1 52.1992 / 5.41217 12801 tonzttn 0.015km -76 12.25 867.1Mhz, SF9BW125, 4/5CR
Meetjestad #4 (De Koperhorst) - -120 -3.5 867.1Mhz, SF9BW125, 4/5CR
51 2018-09-19 22:10:31 19.6875°C 81.25% 3.38V v1 52.1992 / 5.41217 12800 tonzttn 0.015km -77 13.25 868.3Mhz, SF9BW125, 4/5CR
51 2018-09-19 21:53:30 19.875°C 80.8125% 3.38V v1 52.1992 / 5.41217 12799 tonzttn 0.015km -78 12.5 867.9Mhz, SF9BW125, 4/5CR
Meetjestad #4 (De Koperhorst) - -120 -1.2 867.9Mhz, SF9BW125, 4/5CR
51 2018-09-19 21:36:29 19.875°C 80.25% 3.38V v1 52.1992 / 5.41217 12798 tonzttn 0.015km -77 12.25 868.1Mhz, SF9BW125, 4/5CR
Meetjestad #4 (De Koperhorst) - -121 -3.5 868.1Mhz, SF9BW125, 4/5CR
51 2018-09-19 21:19:28 19.875°C 80.4375% 3.38V v1 52.1992 / 5.41217 12797 tonzttn 0.015km -77 12.5 867.7Mhz, SF9BW125, 4/5CR
Meetjestad #4 (De Koperhorst) - -121 -7 867.7Mhz, SF9BW125, 4/5CR
51 2018-09-19 21:02:27 20°C 79.9375% 3.38V v1 52.1992 / 5.41217 12796 tonzttn 0.015km -70 8.75 868.5Mhz, SF9BW125, 4/5CR
51 2018-09-19 20:45:27 20.3125°C 79.375% 3.38V v1 52.1992 / 5.41217 12795 tonzttn 0.015km -72 9 867.5Mhz, SF9BW125, 4/5CR
Meetjestad #4 (De Koperhorst) - -108 -11.5 867.5Mhz, SF9BW125, 4/5CR
51 2018-09-19 20:28:25 20.5625°C 77% 3.38V v1 52.1992 / 5.41217 12794 tonzttn 0.015km -69 12 868.3Mhz, SF9BW125, 4/5CR
Meetjestad #4 (De Koperhorst) - -119 -6.8 868.3Mhz, SF9BW125, 4/5CR
51 2018-09-19 20:11:24 20.8125°C 75.6875% 3.38V v1 52.1992 / 5.41217 12793 tonzttn 0.015km -77 13.25 867.3Mhz, SF9BW125, 4/5CR
Meetjestad #4 (De Koperhorst) - -121 -9 867.3Mhz, SF9BW125, 4/5CR
51 2018-09-19 19:54:23 21.125°C 74.125% 3.38V v1 52.1992 / 5.41217 12792 tonzttn 0.015km -77 12.25 868.1Mhz, SF9BW125, 4/5CR
Meetjestad #4 (De Koperhorst) - -120 -10 868.1Mhz, SF9BW125, 4/5CR
51 2018-09-19 19:37:22 21.3125°C 73.3125% 3.38V v1 52.1992 / 5.41217 12791 tonzttn 0.015km -75 11.75 867.1Mhz, SF9BW125, 4/5CR
51 2018-09-19 19:20:20 21.5°C 72.375% 3.38V v1 52.1992 / 5.41217 12790 tonzttn 0.015km -71 8 868.5Mhz, SF9BW125, 4/5CR
Meetjestad #4 (De Koperhorst) - -112 -11 868.5Mhz, SF9BW125, 4/5CR
51 2018-09-19 19:03:19 21.8125°C 70.625% 3.38V v1 52.1992 / 5.41217 12789 tonzttn 0.015km -73 11 867.9Mhz, SF9BW125, 4/5CR
Meetjestad #4 (De Koperhorst) - -121 -4.8 867.9Mhz, SF9BW125, 4/5CR
51 2018-09-19 18:46:17 22.125°C 69.5% 3.38V v1 52.1992 / 5.41217 12788 tonzttn 0.015km -75 12.75 868.3Mhz, SF9BW125, 4/5CR
Meetjestad #4 (De Koperhorst) - -114 -13.5 868.3Mhz, SF9BW125, 4/5CR
51 2018-09-19 18:29:15 22.1875°C 68.9375% 3.38V v1 52.1992 / 5.41217 12787 tonzttn 0.015km -75 13.5 867.7Mhz, SF9BW125, 4/5CR
Meetjestad #4 (De Koperhorst) - -120 -8 867.7Mhz, SF9BW125, 4/5CR
51 2018-09-19 18:12:14 22.3125°C 68.625% 3.38V v1 52.1992 / 5.41217 12786 tonzttn 0.015km -71 11.25 868.1Mhz, SF9BW125, 4/5CR
51 2018-09-19 17:55:12 22.5°C 68.125% 3.38V v1 52.1992 / 5.41217 12785 tonzttn 0.015km -77 9 867.5Mhz, SF9BW125, 4/5CR
Meetjestad #4 (De Koperhorst) - -112 -11 867.5Mhz, SF9BW125, 4/5CR
51 2018-09-19 17:38:10 22.6875°C 67.4375% 3.38V v1 52.1992 / 5.41217 12784 tonzttn 0.015km -71 9.5 868.5Mhz, SF9BW125, 4/5CR
Meetjestad #4 (De Koperhorst) - -114 -11 868.5Mhz, SF9BW125, 4/5CR
51 2018-09-19 17:21:08 22.6875°C 67.3125% 3.38V v1 52.1992 / 5.41217 12783 tonzttn 0.015km -77 13 867.3Mhz, SF9BW125, 4/5CR
Meetjestad #4 (De Koperhorst) - -120 -8 867.3Mhz, SF9BW125, 4/5CR
51 2018-09-19 17:04:06 22.9375°C 66.3125% 3.38V v1 52.1992 / 5.41217 12782 tonzttn 0.015km -71 13 868.3Mhz, SF9BW125, 4/5CR
51 2018-09-19 16:47:04 23.0625°C 65.875% 3.38V v1 52.1992 / 5.41217 12781 tonzttn 0.015km -79 11 867.1Mhz, SF9BW125, 4/5CR
Meetjestad #4 (De Koperhorst) - -120 -7.5 867.1Mhz, SF9BW125, 4/5CR
mjs-gateway-6 - -123 -13.25 867.1Mhz, SF9BW125, 4/5CR
51 2018-09-19 16:30:02 22.875°C 67.0625% 3.38V v1 52.1992 / 5.41217 12780 tonzttn 0.015km -77 10.5 868.1Mhz, SF9BW125, 4/5CR
51 2018-09-19 16:13:00 22.625°C 67.5% 3.38V v1 52.1992 / 5.41217 12779 tonzttn 0.015km -83 13.25 867.9Mhz, SF9BW125, 4/5CR
Meetjestad #4 (De Koperhorst) - -120 -4 867.9Mhz, SF9BW125, 4/5CR
51 2018-09-19 15:55:58 22.8125°C 67.375% 3.38V v1 52.1992 / 5.41217 12778 tonzttn 0.015km -77 8.75 868.5Mhz, SF9BW125, 4/5CR
Meetjestad #4 (De Koperhorst) - -114 -11 868.5Mhz, SF9BW125, 4/5CR
51 2018-09-19 15:38:56 22.6875°C 68.0625% 3.38V v1 52.1992 / 5.41217 12777 tonzttn 0.015km -79 12.25 867.7Mhz, SF9BW125, 4/5CR
51 2018-09-19 15:21:55 22.75°C 67.3125% 3.38V v1 52.1992 / 5.41217 12776 tonzttn 0.015km -75 12 868.3Mhz, SF9BW125, 4/5CR
51 2018-09-19 15:04:53 22.625°C 66.9375% 3.38V v1 52.1992 / 5.41217 12775 tonzttn 0.015km -76 8.75 867.5Mhz, SF9BW125, 4/5CR
51 2018-09-19 14:47:51 22.5625°C 67.1875% 3.38V v1 52.1992 / 5.41217 12774 tonzttn 0.015km -75 12.25 868.1Mhz, SF9BW125, 4/5CR
Meetjestad #4 (De Koperhorst) - -121 -4.8 868.1Mhz, SF9BW125, 4/5CR
51 2018-09-19 14:30:49 22.1875°C 69.9375% 3.38V v1 52.1992 / 5.41217 12773 tonzttn 0.015km -83 11 867.3Mhz, SF9BW125, 4/5CR
Meetjestad #4 (De Koperhorst) - -119 -5.2 867.3Mhz, SF9BW125, 4/5CR
51 2018-09-19 14:13:48 22.6875°C 69.0625% 3.38V v1 52.1992 / 5.41217 12772 tonzttn 0.015km -73 9.5 868.5Mhz, SF9BW125, 4/5CR
51 2018-09-19 13:56:46 22°C 71.625% 3.38V v1 52.1992 / 5.41217 12771 tonzttn 0.015km -81 12.25 867.1Mhz, SF9BW125, 4/5CR
Meetjestad #4 (De Koperhorst) - -118 -2.8 867.1Mhz, SF9BW125, 4/5CR
51 2018-09-19 13:39:45 22.0625°C 72.75% 3.38V v1 52.1992 / 5.41217 12770 tonzttn 0.015km -77 10.25 868.3Mhz, SF9BW125, 4/5CR
51 2018-09-19 13:22:43 21.6875°C 73.75% 3.38V v1 52.1992 / 5.41217 12769 tonzttn 0.015km -79 12.75 867.9Mhz, SF9BW125, 4/5CR
Meetjestad #4 (De Koperhorst) - -120 -4.8 867.9Mhz, SF9BW125, 4/5CR
51 2018-09-19 13:06:37 21.8125°C 75.125% 3.38V v1 52.1992 / 5.41217 12768 tonzttn 0.015km -75 8.75 868.1Mhz, SF12BW125, 4/5CR
Meetjestad #4 (De Koperhorst) - -119 -3.2 868.1Mhz, SF12BW125, 4/5CR
eui-b827ebfffef4313e 2.877km -114 -14.8 868.1Mhz, SF12BW125, 4/5CR
eui-b827ebfffe710b30 - -111 -16.5 868.1Mhz, SF12BW125, 4/5CR
51 2018-09-19 12:48:47 21.4375°C 77.5% 3.38V v1 52.1991 / 5.41205 12767 tonzttn 0.003km -75 11.75 867.7Mhz, SF9BW125, 4/5CR
Meetjestad #4 (De Koperhorst) - -119 -9.5 867.7Mhz, SF9BW125, 4/5CR
51 2018-09-19 12:31:45 21.5625°C 80.125% 3.38V v1 52.1991 / 5.41205 12766 tonzttn 0.003km -75 9.25 868.5Mhz, SF9BW125, 4/5CR
51 2018-09-19 12:14:44 20.8125°C 82.1875% 3.38V v1 52.1991 / 5.41205 12765 tonzttn 0.003km -75 8.5 867.5Mhz, SF9BW125, 4/5CR
51 2018-09-19 11:57:43 21.125°C 82.1875% 3.38V v1 52.1991 / 5.41205 12764 tonzttn 0.003km -75 12 868.3Mhz, SF9BW125, 4/5CR
51 2018-09-19 11:40:42 21.25°C 82.8125% 3.38V v1 52.1991 / 5.41205 12763 tonzttn 0.003km -81 13.25 867.3Mhz, SF9BW125, 4/5CR
51 2018-09-19 11:23:41 20.5°C 83.75% 3.38V v1 52.1991 / 5.41205 12762 tonzttn 0.003km -81 13.5 868.1Mhz, SF9BW125, 4/5CR
51 2018-09-19 11:06:39 20.25°C 84.9375% 3.38V v1 52.1991 / 5.41205 12761 tonzttn 0.003km -77 11.75 867.1Mhz, SF9BW125, 4/5CR
Meetjestad #4 (De Koperhorst) - -120 -4.5 867.1Mhz, SF9BW125, 4/5CR
51 2018-09-19 10:49:39 19.625°C 87.5625% 3.38V v1 52.1991 / 5.41205 12760 tonzttn 0.003km -75 9 868.5Mhz, SF9BW125, 4/5CR
51 2018-09-19 10:32:38 19.25°C 88.0625% 3.38V v1 52.1991 / 5.41205 12759 tonzttn 0.003km -81 11.5 867.9Mhz, SF9BW125, 4/5CR
Meetjestad #4 (De Koperhorst) - -119 -12 867.9Mhz, SF9BW125, 4/5CR
Meetjestad #3 (Berghotel) 6.97km -119 -14 867.9Mhz, SF9BW125, 4/5CR
51 2018-09-19 10:15:37 19°C 89.0625% 3.38V v1 52.1991 / 5.41205 12758 tonzttn 0.003km -75 12.75 868.3Mhz, SF9BW125, 4/5CR
Meetjestad #4 (De Koperhorst) - -111 -11 868.3Mhz, SF9BW125, 4/5CR
51 2018-09-19 09:58:37 18.5625°C 90.125% 3.38V v1 52.1991 / 5.41205 12757 tonzttn 0.003km -79 13 867.7Mhz, SF9BW125, 4/5CR
Meetjestad #4 (De Koperhorst) - -111 4.2 867.7Mhz, SF9BW125, 4/5CR
51 2018-09-19 09:41:36 18.375°C 91.0625% 3.38V v1 52.1991 / 5.41205 12756 tonzttn 0.003km -77 11.75 868.1Mhz, SF9BW125, 4/5CR
Meetjestad #4 (De Koperhorst) - -119 -1.8 868.1Mhz, SF9BW125, 4/5CR
51 2018-09-19 09:24:36 17.75°C 92.375% 3.38V v1 52.1991 / 5.41205 12755 tonzttn 0.003km -79 8.75 867.5Mhz, SF9BW125, 4/5CR
51 2018-09-19 09:07:36 16.6875°C 94.6875% 3.38V v1 52.1991 / 5.41205 12754 tonzttn 0.003km -75 8.75 868.5Mhz, SF9BW125, 4/5CR
51 2018-09-19 08:50:37 15.75°C 96% 3.38V v1 52.1991 / 5.41205 12753 tonzttn 0.003km -75 13.5 867.3Mhz, SF9BW125, 4/5CR
Meetjestad #4 (De Koperhorst) - -120 -1.8 867.3Mhz, SF9BW125, 4/5CR
eui-1dee1538af05a5a8 - -118 -14.2 867.3Mhz, SF9BW125, 4/5CR
51 2018-09-19 08:33:37 15.3125°C 96.5625% 3.38V v1 52.1991 / 5.41205 12752 tonzttn 0.003km -72 10 868.3Mhz, SF9BW125, 4/5CR
51 2018-09-19 08:16:38 14.8125°C 97.5% 3.38V v1 52.1991 / 5.41205 12751 tonzttn 0.003km -77 12 867.1Mhz, SF9BW125, 4/5CR
Meetjestad #4 (De Koperhorst) - -121 -7.5 867.1Mhz, SF9BW125, 4/5CR
eui-1dee1538af05a5a8 - -118 -13 867.1Mhz, SF9BW125, 4/5CR
51 2018-09-19 07:59:39 14.6875°C 97.6875% 3.38V v1 52.1991 / 5.41205 12750 tonzttn 0.003km -81 13 868.1Mhz, SF9BW125, 4/5CR
Meetjestad #4 (De Koperhorst) - -118 -14.2 868.1Mhz, SF9BW125, 4/5CR
51 2018-09-19 07:42:39 14.5°C 98.125% 3.38V v1 52.1991 / 5.41205 12749 tonzttn 0.003km -83 13.75 867.9Mhz, SF9BW125, 4/5CR
Meetjestad #4 (De Koperhorst) - -121 -3.8 867.9Mhz, SF9BW125, 4/5CR
51 2018-09-19 07:25:40 14.375°C 98.25% 3.38V v1 52.1991 / 5.41205 12748 tonzttn 0.003km -73 9.5 868.5Mhz, SF9BW125, 4/5CR
51 2018-09-19 07:08:41 14.5°C 98.375% 3.38V v1 52.1991 / 5.41205 12747 tonzttn 0.003km -78 12.25 867.7Mhz, SF9BW125, 4/5CR
Meetjestad #4 (De Koperhorst) - -120 -6.5 867.7Mhz, SF9BW125, 4/5CR
51 2018-09-19 06:51:42 14.5625°C 98% 3.38V v1 52.1991 / 5.41205 12746 tonzttn 0.003km -77 13.25 868.3Mhz, SF9BW125, 4/5CR
51 2018-09-19 06:34:42 14.6875°C 97.625% 3.38V v1 52.1991 / 5.41205 12745 tonzttn 0.003km -75 9.25 867.5Mhz, SF9BW125, 4/5CR
Meetjestad #4 (De Koperhorst) - -118 -12.2 867.5Mhz, SF9BW125, 4/5CR
51 2018-09-19 06:17:43 14.625°C 97.875% 3.38V v1 52.1991 / 5.41205 12744 tonzttn 0.003km -79 11.5 868.1Mhz, SF9BW125, 4/5CR
Meetjestad #4 (De Koperhorst) - -119 -1.8 868.1Mhz, SF9BW125, 4/5CR
51 2018-09-19 06:00:44 14.75°C 97.375% 3.38V v1 52.1991 / 5.41205 12743 tonzttn 0.003km -79 12.25 867.3Mhz, SF9BW125, 4/5CR
Meetjestad #4 (De Koperhorst) - -119 -2 867.3Mhz, SF9BW125, 4/5CR
51 2018-09-19 05:43:45 14.8125°C 97.0625% 3.38V v1 52.1991 / 5.41205 12742 tonzttn 0.003km -71 9.25 868.5Mhz, SF9BW125, 4/5CR
Meetjestad #4 (De Koperhorst) - -113 -10.2 868.5Mhz, SF9BW125, 4/5CR
51 2018-09-19 05:26:45 14.9375°C 96.4375% 3.38V v1 52.1991 / 5.41205 12741 tonzttn 0.003km -83 13.5 867.1Mhz, SF9BW125, 4/5CR
Meetjestad #4 (De Koperhorst) - -120 -3.5 867.1Mhz, SF9BW125, 4/5CR
eui-1dee1538af05a5a8 - -120 -12.2 867.1Mhz, SF9BW125, 4/5CR
mjs-gateway-6 - -120 -12.75 867.1Mhz, SF9BW125, 4/5CR
51 2018-09-19 05:09:46 15.0625°C 96.25% 3.38V v1 52.1991 / 5.41205 12740 tonzttn 0.003km -79 13.5 868.3Mhz, SF9BW125, 4/5CR
Meetjestad #4 (De Koperhorst) - -111 -7 868.3Mhz, SF9BW125, 4/5CR
51 2018-09-19 04:52:47 15°C 96.5% 3.38V v1 52.1991 / 5.41205 12739 tonzttn 0.003km -76 12.25 867.9Mhz, SF9BW125, 4/5CR
Meetjestad #4 (De Koperhorst) - -120 -2.2 867.9Mhz, SF9BW125, 4/5CR
eui-1dee1538af05a5a8 - -120 -13 867.9Mhz, SF9BW125, 4/5CR
51 2018-09-19 04:35:47 15.0625°C 96.3125% 3.38V v1 52.1991 / 5.41205 12738 tonzttn 0.003km -81 13.25 868.1Mhz, SF9BW125, 4/5CR
51 2018-09-19 04:18:48 15.0625°C 96.625% 3.38V v1 52.1991 / 5.41205 12737 tonzttn 0.003km -73 12.5 867.7Mhz, SF9BW125, 4/5CR
Meetjestad #4 (De Koperhorst) - -120 -5.2 867.7Mhz, SF9BW125, 4/5CR
51 2018-09-19 04:01:48 15.1875°C 96.25% 3.38V v1 52.1991 / 5.41205 12736 tonzttn 0.003km -73 9.5 868.5Mhz, SF9BW125, 4/5CR
51 2018-09-19 03:44:49 15.1875°C 96.5% 3.38V v1 52.1991 / 5.41205 12735 tonzttn 0.003km -77 9.5 867.5Mhz, SF9BW125, 4/5CR
Meetjestad #4 (De Koperhorst) - -117 -13 867.5Mhz, SF9BW125, 4/5CR
51 2018-09-19 03:27:49 15.25°C 96.625% 3.38V v1 52.1991 / 5.41205 12734 tonzttn 0.003km -75 12.25 868.3Mhz, SF9BW125, 4/5CR
Meetjestad #4 (De Koperhorst) - -101 -7.5 868.3Mhz, SF9BW125, 4/5CR
51 2018-09-19 03:10:50 15.1875°C 97.3125% 3.38V v1 52.1991 / 5.41205 12733 tonzttn 0.003km -83 13 867.3Mhz, SF9BW125, 4/5CR
Meetjestad #4 (De Koperhorst) - -117 1.5 867.3Mhz, SF9BW125, 4/5CR
51 2018-09-19 02:53:51 15.25°C 97.4375% 3.38V v1 52.1991 / 5.41205 12732 tonzttn 0.003km -79 13 868.1Mhz, SF9BW125, 4/5CR

Message count: 200

Node count: 1

Messages per node

Number of messages in list aboveNodes
20051

Statistics per gateway

GatewayNumber of messagesNumber of nodesNodes
tonzttn (filter)200151 (0.003km)
Meetjestad #4 (De Koperhorst) (filter)130151
eui-1dee1538af05a5a8 (filter)13151
mjs-gateway-6 (filter)11151
Meetjestad #3 (Berghotel) (filter)3151 (6.97km)
eui-b827ebfffe710b30 (filter)3151
eui-b827ebfffef4313e (filter)1151 (2.877km)

Filter by dataset